Time;durP1;ratioP1;P1;durP2;ratioP2;P2;SDS_P1;SDS_P2;PMS_P1;PMS_P2;Temp;Humidity;BMP_temperature;BMP_pressure;BME280_temperature;BME280_humidity;BME280_pressure;Samples;Min_cycle;Max_cycle;Signal;HPM_P1;HPM_P2
2021/05/22 00:00:58;;;;;;;7.03;3.85;;;17.00;99.90;;;;;;5023621;28;20083;-73
2021/05/22 00:03:24;;;;;;;8.93;2.03;;;17.00;99.90;;;;;;5034820;28;20029;-73
2021/05/22 00:05:50;;;;;;;5.75;1.83;;;17.10;99.90;;;;;;5030734;28;20025;-73
2021/05/22 00:08:16;;;;;;;7.93;1.40;;;17.10;99.90;;;;;;5034272;28;20021;-73
2021/05/22 00:10:42;;;;;;;7.20;2.15;;;17.10;99.90;;;;;;5033957;28;20029;-73
2021/05/22 00:13:08;;;;;;;5.55;2.00;;;17.00;99.90;;;;;;5034204;28;20021;-72
2021/05/22 00:15:34;;;;;;;8.00;2.38;;;17.10;99.90;;;;;;5030975;28;20033;-72
2021/05/22 00:18:00;;;;;;;6.43;2.17;;;17.00;99.90;;;;;;5035955;28;20033;-72
2021/05/22 00:20:26;;;;;;;3.70;1.63;;;17.00;99.90;;;;;;5038661;28;20041;-74
2021/05/22 00:22:51;;;;;;;6.95;1.98;;;17.00;99.90;;;;;;5036748;28;20090;-74
2021/05/22 00:25:17;;;;;;;9.15;1.77;;;17.00;99.90;;;;;;5040516;28;20088;-73
2021/05/22 00:27:43;;;;;;;2.70;1.50;;;17.00;99.90;;;;;;5041259;28;20029;-73
2021/05/22 00:30:10;;;;;;;6.05;2.00;;;17.10;99.90;;;;;;5039586;28;20043;-73
2021/05/22 00:32:36;;;;;;;8.10;2.13;;;17.10;99.90;;;;;;5020876;28;20065;-73
2021/05/22 00:35:03;;;;;;;7.45;1.80;;;17.10;99.90;;;;;;5039201;28;20418;-72
2021/05/22 00:37:28;;;;;;;7.35;2.75;;;17.00;99.90;;;;;;5036766;28;20073;-71
2021/05/22 00:39:54;;;;;;;10.00;3.50;;;16.90;99.90;;;;;;5036033;28;20034;-72
2021/05/22 00:42:20;;;;;;;5.18;1.48;;;16.80;99.90;;;;;;5034869;28;20097;-72
2021/05/22 00:45:06;;;;;;;7.63;1.65;;;16.70;99.90;;;;;;5032394;28;20113;-73
2021/05/22 00:47:33;;;;;;;5.80;1.85;;;16.70;99.90;;;;;;5041693;28;20083;-72
2021/05/22 00:49:59;;;;;;;11.20;3.08;;;16.70;99.90;;;;;;5032581;28;20036;-72
2021/05/22 00:52:25;;;;;;;8.93;4.60;;;16.70;99.90;;;;;;5034763;28;20044;-73
2021/05/22 00:54:51;;;;;;;10.02;1.80;;;16.70;99.90;;;;;;5033614;28;20071;-73
2021/05/22 00:57:18;;;;;;;8.05;1.60;;;16.80;99.90;;;;;;5025353;28;20104;-73
2021/05/22 00:59:44;;;;;;;11.25;2.53;;;16.80;99.90;;;;;;5031272;28;20415;-73
2021/05/22 01:02:11;;;;;;;8.55;2.30;;;16.80;99.90;;;;;;5022813;28;20033;-72
2021/05/22 01:04:37;;;;;;;10.95;2.17;;;16.80;99.90;;;;;;5033002;28;20060;-72
2021/05/22 01:07:03;;;;;;;9.15;2.10;;;16.80;99.90;;;;;;5032402;28;20029;-74
2021/05/22 01:09:31;;;;;;;4.82;2.10;;;16.80;99.90;;;;;;5030654;28;20034;-72
2021/05/22 01:12:00;;;;;;;4.22;1.58;;;16.90;99.90;;;;;;5035567;28;20017;-73
2021/05/22 01:14:48;;;;;;;9.48;2.17;;;17.00;99.90;;;;;;5025481;28;20022;-73
2021/05/22 01:17:17;;;;;;;10.30;2.55;;;17.00;99.90;;;;;;5033198;28;20087;-72
2021/05/22 01:19:54;;;;;;;5.65;2.13;;;17.10;99.90;;;;;;5030866;28;20021;-74
2021/05/22 01:22:21;;;;;;;12.55;2.50;;;17.10;99.90;;;;;;5031229;28;20037;-73
2021/05/22 01:24:56;;;;;;;5.18;1.40;;;16.90;99.90;;;;;;5031858;28;20035;-73
2021/05/22 01:27:23;;;;;;;9.57;2.40;;;16.90;99.90;;;;;;5032107;28;20029;-72
2021/05/22 01:29:49;;;;;;;8.13;1.50;;;17.00;99.90;;;;;;5029808;28;20036;-73
2021/05/22 01:32:15;;;;;;;13.10;1.67;;;16.90;99.90;;;;;;5027930;28;20105;-73
2021/05/22 01:34:41;;;;;;;10.98;2.30;;;16.90;99.90;;;;;;5039317;28;20128;-74
2021/05/22 01:37:07;;;;;;;11.10;2.13;;;17.00;99.90;;;;;;5043772;28;20411;-74
2021/05/22 01:39:33;;;;;;;5.18;2.15;;;17.00;99.90;;;;;;5034133;28;20403;-71
2021/05/22 01:41:59;;;;;;;11.05;2.38;;;17.00;99.90;;;;;;5045462;28;20029;-73
2021/05/22 01:44:28;;;;;;;6.72;2.13;;;17.00;99.90;;;;;;5049317;28;21911;-74
2021/05/22 01:46:54;;;;;;;4.82;1.80;;;17.00;99.90;;;;;;5045693;28;20025;-72
2021/05/22 01:49:25;;;;;;;4.15;2.00;;;17.00;99.90;;;;;;5047277;28;20025;-73
2021/05/22 01:51:54;;;;;;;4.65;1.50;;;16.90;99.90;;;;;;5021866;28;20030;-73
2021/05/22 01:54:21;;;;;;;8.00;1.90;;;16.90;99.90;;;;;;5047051;28;20037;-73
2021/05/22 01:56:48;;;;;;;9.80;1.75;;;16.80;99.90;;;;;;5051248;28;20052;-71
2021/05/22 01:59:16;;;;;;;9.80;2.08;;;16.80;99.90;;;;;;5057210;28;20024;-72
2021/05/22 02:01:47;;;;;;;9.68;1.90;;;16.90;99.90;;;;;;5037159;28;20026;-73
2021/05/22 02:04:13;;;;;;;8.02;1.77;;;16.90;99.90;;;;;;5051593;28;20036;-71
2021/05/22 02:06:44;;;;;;;7.97;1.60;;;16.90;99.90;;;;;;5058026;28;20479;-72
2021/05/22 02:09:14;;;;;;;7.03;1.80;;;17.00;99.90;;;;;;5049907;28;20025;-72
2021/05/22 02:11:42;;;;;;;6.07;2.75;;;17.00;99.90;;;;;;5041464;28;20017;-74
2021/05/22 02:14:09;;;;;;;7.85;1.77;;;16.90;99.90;;;;;;5046462;28;20741;-76
2021/05/22 02:16:57;;;;;;;6.97;2.13;;;16.90;99.90;;;;;;5032008;28;20414;-73
2021/05/22 02:19:25;;;;;;;5.82;1.40;;;17.00;99.90;;;;;;5017566;28;20186;-74
2021/05/22 02:21:52;;;;;;;5.68;1.90;;;16.90;99.90;;;;;;5035312;28;20973;-73
2021/05/22 02:24:24;;;;;;;9.32;1.30;;;16.80;99.90;;;;;;5039671;28;20033;-75
2021/05/22 02:26:51;;;;;;;8.75;1.77;;;16.80;99.90;;;;;;5040146;28;20018;-73
2021/05/22 02:29:19;;;;;;;6.53;1.67;;;16.80;99.90;;;;;;5038426;28;20032;-74
2021/05/22 02:31:47;;;;;;;8.32;1.60;;;16.70;99.90;;;;;;5035666;28;20613;-74
2021/05/22 02:34:15;;;;;;;7.50;1.60;;;16.70;99.90;;;;;;5020613;28;20488;-73
2021/05/22 02:36:43;;;;;;;8.43;1.35;;;16.70;99.90;;;;;;5029265;28;20107;-73
2021/05/22 02:39:10;;;;;;;10.40;2.30;;;16.70;99.90;;;;;;5029885;28;20638;-73
2021/05/22 02:41:37;;;;;;;12.15;2.10;;;16.70;99.90;;;;;;5029018;28;20472;-73
2021/05/22 02:44:05;;;;;;;7.88;1.60;;;16.70;99.90;;;;;;5029610;28;20140;-73
2021/05/22 02:46:37;;;;;;;5.82;1.92;;;16.70;99.90;;;;;;5030252;28;20083;-73
2021/05/22 02:49:06;;;;;;;8.75;1.95;;;16.70;99.90;;;;;;5028501;28;20032;-74
2021/05/22 02:51:32;;;;;;;5.53;1.40;;;16.60;99.90;;;;;;5027510;28;20021;-73
2021/05/22 02:54:00;;;;;;;4.97;1.50;;;16.70;99.90;;;;;;5030311;28;20674;-74
2021/05/22 02:56:27;;;;;;;7.45;2.22;;;16.70;99.90;;;;;;5023481;28;20073;-74
2021/05/22 02:58:55;;;;;;;3.45;1.15;;;16.60;99.90;;;;;;5028629;28;20026;-73
2021/05/22 03:01:21;;;;;;;3.95;1.33;;;16.60;99.90;;;;;;5028451;28;20025;-73
2021/05/22 03:03:48;;;;;;;12.27;1.20;;;16.70;99.90;;;;;;5030201;28;20053;-73
2021/05/22 03:06:14;;;;;;;8.23;1.40;;;16.60;99.90;;;;;;5030116;28;20032;-74
2021/05/22 03:08:44;;;;;;;6.85;1.30;;;16.60;99.90;;;;;;5029875;28;20022;-73
2021/05/22 03:11:11;;;;;;;8.10;1.65;;;16.60;99.90;;;;;;5029009;28;20028;-73
2021/05/22 03:13:37;;;;;;;4.07;1.98;;;16.60;99.90;;;;;;5040749;28;20025;-74
2021/05/22 03:16:03;;;;;;;5.85;1.02;;;16.60;99.90;;;;;;5029556;28;20151;-72
2021/05/22 03:18:29;;;;;;;8.05;1.70;;;16.60;99.90;;;;;;5041753;28;20029;-73
2021/05/22 03:20:55;;;;;;;5.75;1.20;;;16.50;99.90;;;;;;5026120;28;20025;-73
2021/05/22 03:23:21;;;;;;;3.95;1.25;;;16.50;99.90;;;;;;5032995;28;20104;-73
2021/05/22 03:25:47;;;;;;;6.05;1.35;;;16.50;99.90;;;;;;5034062;28;20054;-73
2021/05/22 03:28:12;;;;;;;7.75;1.20;;;16.50;99.90;;;;;;5032908;28;20029;-75
2021/05/22 03:30:38;;;;;;;12.52;2.42;;;16.40;99.90;;;;;;5032004;28;20022;-72
2021/05/22 03:33:04;;;;;;;9.93;3.28;;;16.40;99.90;;;;;;5031907;28;20033;-73
2021/05/22 03:35:29;;;;;;;7.45;1.63;;;16.40;99.90;;;;;;5038380;28;20506;-74
2021/05/22 03:37:55;;;;;;;9.27;1.65;;;16.30;99.90;;;;;;5045029;28;20024;-73
2021/05/22 03:40:21;;;;;;;5.13;1.55;;;16.30;99.90;;;;;;5044108;28;20498;-73
2021/05/22 03:42:47;;;;;;;5.68;2.13;;;16.20;99.90;;;;;;5024332;28;20063;-73
2021/05/22 03:45:13;;;;;;;15.02;2.22;;;16.20;99.90;;;;;;5049730;28;20104;-74
2021/05/22 03:47:39;;;;;;;8.00;1.52;;;16.20;99.90;;;;;;5036934;28;20018;-75
2021/05/22 03:50:05;;;;;;;4.18;1.27;;;16.20;99.90;;;;;;5036627;28;20041;-75
2021/05/22 03:52:31;;;;;;;9.60;1.83;;;16.30;99.90;;;;;;5035429;28;20025;-73
2021/05/22 03:54:57;;;;;;;5.18;1.95;;;16.30;99.90;;;;;;5035461;28;20399;-75
2021/05/22 03:57:23;;;;;;;6.60;2.47;;;16.40;99.90;;;;;;5043309;28;20029;-74
2021/05/22 03:59:49;;;;;;;5.38;1.10;;;16.30;99.90;;;;;;5050768;28;20085;-73
2021/05/22 04:02:15;;;;;;;6.38;1.58;;;16.20;99.90;;;;;;5041365;28;20025;-73
2021/05/22 04:04:40;;;;;;;4.13;1.33;;;16.20;99.90;;;;;;5044364;28;20086;-74
2021/05/22 04:07:06;;;;;;;7.88;1.20;;;16.10;99.90;;;;;;5040925;28;20038;-73
2021/05/22 04:09:32;;;;;;;3.80;0.82;;;16.10;99.90;;;;;;5044322;28;20083;-74
2021/05/22 04:11:57;;;;;;;6.65;1.10;;;16.10;99.90;;;;;;5038509;28;20021;-74
2021/05/22 04:14:23;;;;;;;4.45;1.08;;;16.10;99.90;;;;;;5042016;28;20036;-74
2021/05/22 04:16:49;;;;;;;4.15;1.73;;;16.10;99.90;;;;;;5030311;28;20033;-73
2021/05/22 04:19:15;;;;;;;6.20;1.42;;;16.10;99.90;;;;;;5026737;28;20036;-73
2021/05/22 04:21:40;;;;;;;4.30;1.48;;;16.10;99.90;;;;;;5040978;28;20017;-73
2021/05/22 04:24:08;;;;;;;6.20;1.60;;;16.20;99.90;;;;;;5049847;28;20637;-74
2021/05/22 04:26:34;;;;;;;8.90;1.38;;;16.20;99.90;;;;;;5043902;28;20021;-74
2021/05/22 04:28:59;;;;;;;6.97;2.03;;;16.20;99.90;;;;;;5040428;28;20029;-75
2021/05/22 04:31:25;;;;;;;7.47;2.20;;;16.10;99.90;;;;;;5038985;28;20484;-74
2021/05/22 04:33:51;;;;;;;4.47;1.08;;;16.10;99.90;;;;;;5034567;28;20528;-75
2021/05/22 04:36:17;;;;;;;5.60;1.20;;;16.20;99.90;;;;;;5019413;28;20545;-74
2021/05/22 04:38:42;;;;;;;8.77;2.47;;;16.30;99.90;;;;;;5032711;28;20036;-75
2021/05/22 04:41:08;;;;;;;6.93;1.42;;;16.30;99.90;;;;;;5031876;28;20499;-74
2021/05/22 04:43:34;;;;;;;3.40;1.17;;;16.40;99.90;;;;;;5030657;28;20041;-75
2021/05/22 04:46:00;;;;;;;6.47;1.60;;;16.50;99.90;;;;;;5029145;28;20033;-74
2021/05/22 04:48:25;;;;;;;8.50;2.00;;;16.60;99.90;;;;;;5030813;28;20026;-72
2021/05/22 04:50:54;;;;;;;5.10;1.15;;;16.60;99.90;;;;;;5020707;28;20030;-72
2021/05/22 04:53:20;;;;;;;7.88;1.98;;;16.60;99.90;;;;;;5028663;28;20470;-73
2021/05/22 04:55:45;;;;;;;2.83;1.20;;;16.50;99.90;;;;;;5030880;28;20026;-73
2021/05/22 04:58:11;;;;;;;2.55;0.95;;;16.50;99.90;;;;;;5032017;28;20023;-74
2021/05/22 05:00:37;;;;;;;5.78;2.13;;;16.50;99.90;;;;;;5031744;28;20109;-72
2021/05/22 05:03:03;;;;;;;3.90;1.13;;;16.50;99.90;;;;;;5030112;28;20061;-73
2021/05/22 05:05:28;;;;;;;3.20;1.40;;;16.60;99.90;;;;;;5023637;28;20100;-71
2021/05/22 05:07:54;;;;;;;5.28;1.33;;;16.60;99.90;;;;;;5029214;28;20060;-69
2021/05/22 05:10:21;;;;;;;5.03;1.40;;;16.70;99.90;;;;;;5031626;28;20029;-68
2021/05/22 05:12:46;;;;;;;4.90;1.55;;;16.70;99.90;;;;;;5027505;28;20052;-68
2021/05/22 05:15:12;;;;;;;3.03;1.42;;;16.70;99.90;;;;;;5029680;28;20100;-68
2021/05/22 05:17:38;;;;;;;2.50;1.25;;;16.70;99.90;;;;;;5025240;28;20475;-73
2021/05/22 05:20:05;;;;;;;4.03;2.05;;;16.60;99.90;;;;;;5030809;28;20033;-73
2021/05/22 05:22:31;;;;;;;3.42;1.33;;;16.70;99.90;;;;;;5025419;28;20156;-73
2021/05/22 05:24:57;;;;;;;2.55;1.40;;;16.60;99.90;;;;;;5025931;28;20112;-73
2021/05/22 05:27:23;;;;;;;6.72;1.00;;;16.60;99.90;;;;;;5032413;28;20029;-73
2021/05/22 05:29:49;;;;;;;3.83;0.77;;;16.60;99.90;;;;;;5028401;28;20368;-74
2021/05/22 05:32:14;;;;;;;4.18;1.40;;;16.60;99.90;;;;;;5031130;28;20099;-73
2021/05/22 05:34:41;;;;;;;9.32;1.30;;;16.50;99.90;;;;;;5030974;28;20040;-73
2021/05/22 05:37:11;;;;;;;5.18;1.17;;;16.50;99.90;;;;;;5030664;28;20026;-73
2021/05/22 05:39:38;;;;;;;5.57;2.40;;;16.50;99.90;;;;;;5030139;28;20021;-72
2021/05/22 05:42:04;;;;;;;5.47;1.23;;;16.40;99.90;;;;;;5030925;28;20104;-73
2021/05/22 05:44:30;;;;;;;5.70;1.35;;;16.40;99.90;;;;;;5029800;28;20558;-73
2021/05/22 05:46:56;;;;;;;2.13;1.17;;;16.50;99.90;;;;;;5030794;28;20104;-72
2021/05/22 05:49:22;;;;;;;1.20;1.10;;;16.50;99.90;;;;;;5031852;28;20022;-72
2021/05/22 05:51:48;;;;;;;3.95;0.85;;;16.50;99.90;;;;;;5031232;28;20115;-72
2021/05/22 05:54:14;;;;;;;2.92;1.10;;;16.60;99.90;;;;;;5030647;28;20017;-73
2021/05/22 05:56:40;;;;;;;8.23;1.10;;;16.60;99.90;;;;;;5028851;28;20018;-73
2021/05/22 05:59:05;;;;;;;2.60;1.35;;;16.70;99.90;;;;;;5030689;28;20572;-72
2021/05/22 06:01:31;;;;;;;10.80;2.03;;;16.70;99.90;;;;;;5020783;28;20554;-74
2021/05/22 06:03:57;;;;;;;3.10;1.40;;;16.70;99.90;;;;;;5030154;28;20505;-74
2021/05/22 06:06:23;;;;;;;4.55;1.70;;;16.70;99.90;;;;;;5017215;28;20387;-74
2021/05/22 06:08:49;;;;;;;3.30;1.55;;;16.70;99.90;;;;;;5030159;28;20057;-73
2021/05/22 06:11:17;;;;;;;2.78;1.30;;;16.70;99.90;;;;;;5030698;28;20064;-73
2021/05/22 06:13:43;;;;;;;3.00;1.45;;;16.70;99.90;;;;;;5029677;28;20022;-74
2021/05/22 06:18:36;;;;;;;4.13;1.50;;;16.80;99.90;;;;;;5029795;28;20155;-73
2021/05/22 06:21:04;;;;;;;2.40;1.08;;;16.80;99.90;;;;;;5029802;28;20537;-73
2021/05/22 06:23:30;;;;;;;2.35;1.17;;;16.90;99.90;;;;;;5025369;28;20090;-73
2021/05/22 06:25:58;;;;;;;4.13;1.42;;;17.10;99.90;;;;;;5029997;28;20036;-73
2021/05/22 06:28:24;;;;;;;4.38;1.15;;;17.00;99.90;;;;;;5029999;28;20052;-74
2021/05/22 06:30:50;;;;;;;5.68;1.40;;;17.10;99.90;;;;;;5020936;28;20028;-72
2021/05/22 06:33:15;;;;;;;5.40;1.58;;;17.10;99.90;;;;;;5029711;28;20387;-72
2021/05/22 06:35:42;;;;;;;2.20;0.93;;;17.10;99.90;;;;;;5022408;28;20036;-73
2021/05/22 06:38:08;;;;;;;3.15;1.30;;;17.20;99.90;;;;;;5029909;28;20018;-74
2021/05/22 06:40:34;;;;;;;3.53;1.40;;;17.20;99.90;;;;;;5030013;28;20028;-73
2021/05/22 06:43:00;;;;;;;6.90;1.65;;;17.30;99.90;;;;;;5030760;28;20013;-73
2021/05/22 06:45:28;;;;;;;12.52;3.63;;;17.20;99.90;;;;;;5032057;28;20030;-73
2021/05/22 06:47:53;;;;;;;7.38;1.50;;;17.30;99.90;;;;;;5027037;28;20475;-73
2021/05/22 06:50:19;;;;;;;1.80;1.13;;;17.20;99.90;;;;;;5029940;28;20036;-73
2021/05/22 06:52:45;;;;;;;5.78;1.52;;;17.30;99.90;;;;;;5029874;28;20021;-73
2021/05/22 06:55:11;;;;;;;3.55;1.23;;;17.30;99.90;;;;;;5028510;28;20482;-73
2021/05/22 06:57:37;;;;;;;6.30;2.78;;;17.40;99.90;;;;;;5032898;28;20078;-73
2021/05/22 07:00:05;;;;;;;3.53;1.55;;;17.40;99.90;;;;;;5033877;28;20379;-73
2021/05/22 07:02:31;;;;;;;4.05;1.17;;;17.50;99.90;;;;;;5034519;28;20052;-73
2021/05/22 07:04:56;;;;;;;2.75;1.00;;;17.50;99.90;;;;;;5032905;28;20068;-73
2021/05/22 07:07:25;;;;;;;5.13;1.23;;;17.50;99.90;;;;;;5034716;28;20060;-73
2021/05/22 07:09:51;;;;;;;7.00;1.23;;;17.50;99.90;;;;;;5035097;28;20156;-73
2021/05/22 07:12:16;;;;;;;3.15;0.98;;;17.40;99.90;;;;;;5034332;28;20491;-77
2021/05/22 07:14:42;;;;;;;6.10;1.48;;;17.40;99.90;;;;;;5030583;28;20025;-73
2021/05/22 07:17:08;;;;;;;4.35;1.50;;;17.50;99.90;;;;;;5033596;28;20537;-74
2021/05/22 07:19:33;;;;;;;4.03;2.20;;;17.40;99.90;;;;;;5033042;28;20035;-75
2021/05/22 07:21:59;;;;;;;5.88;1.65;;;17.50;99.90;;;;;;5029453;28;20033;-73
2021/05/22 07:24:25;;;;;;;6.78;3.30;;;17.50;99.90;;;;;;5033231;28;20041;-73
2021/05/22 07:26:56;;;;;;;3.55;1.13;;;17.50;99.90;;;;;;5033495;28;20026;-73
2021/05/22 07:29:22;;;;;;;5.45;1.23;;;17.60;99.90;;;;;;5034540;28;20033;-74
2021/05/22 07:31:48;;;;;;;2.47;1.10;;;17.70;99.90;;;;;;5032178;28;20075;-74
2021/05/22 07:34:14;;;;;;;7.93;1.38;;;17.70;99.90;;;;;;5033885;28;20025;-73
2021/05/22 07:36:40;;;;;;;4.18;1.63;;;17.70;99.90;;;;;;5032141;28;20083;-74
2021/05/22 07:39:09;;;;;;;5.03;1.65;;;17.80;99.90;;;;;;5027067;28;20033;-73
2021/05/22 07:41:36;;;;;;;4.03;1.23;;;17.80;99.90;;;;;;5032870;28;20025;-72
2021/05/22 07:44:02;;;;;;;7.55;2.92;;;17.80;99.90;;;;;;5033998;28;20037;-72
2021/05/22 07:46:28;;;;;;;5.28;1.85;;;17.90;99.90;;;;;;5027352;28;20037;-72
2021/05/22 07:48:54;;;;;;;3.70;1.92;;;18.00;99.90;;;;;;5032403;28;20021;-73
2021/05/22 07:51:20;;;;;;;4.78;1.67;;;17.90;99.90;;;;;;5020318;28;20025;-72
2021/05/22 07:53:45;;;;;;;3.85;1.63;;;18.00;99.90;;;;;;5033798;28;20029;-74
2021/05/22 07:56:11;;;;;;;8.65;1.75;;;18.10;99.90;;;;;;5036101;28;20017;-71
2021/05/22 07:58:37;;;;;;;9.52;1.63;;;17.90;99.90;;;;;;5033759;28;20021;-72
2021/05/22 08:01:03;;;;;;;3.92;1.52;;;17.80;99.90;;;;;;5026382;28;20033;-72
2021/05/22 08:03:28;;;;;;;3.40;1.55;;;17.80;99.90;;;;;;5031731;28;20110;-72
2021/05/22 08:05:54;;;;;;;7.05;1.98;;;17.80;99.90;;;;;;5031906;28;20061;-73
2021/05/22 08:08:20;;;;;;;6.03;1.50;;;17.80;99.90;;;;;;5031685;28;20113;-73
2021/05/22 08:10:47;;;;;;;4.72;1.25;;;17.90;99.90;;;;;;5032657;28;20420;-73
2021/05/22 08:13:13;;;;;;;5.75;1.52;;;18.00;99.90;;;;;;5033411;28;20025;-73
2021/05/22 08:15:40;;;;;;;11.93;2.40;;;18.20;99.90;;;;;;5031270;28;20025;-73
2021/05/22 08:18:06;;;;;;;3.80;1.45;;;18.30;99.90;;;;;;5032135;28;20063;-72
2021/05/22 08:20:33;;;;;;;3.58;1.50;;;18.30;99.90;;;;;;5031685;28;20092;-72
2021/05/22 08:22:59;;;;;;;8.05;1.42;;;18.30;99.90;;;;;;5027024;28;20114;-72
2021/05/22 08:25:25;;;;;;;6.45;1.98;;;18.10;99.90;;;;;;5026569;28;20030;-73
2021/05/22 08:27:52;;;;;;;8.73;1.75;;;18.10;99.90;;;;;;5031888;28;20021;-73
2021/05/22 08:30:20;;;;;;;4.90;1.80;;;18.20;99.90;;;;;;5031231;28;20030;-72
2021/05/22 08:32:47;;;;;;;7.22;1.40;;;18.10;99.90;;;;;;5039774;28;20022;-72
2021/05/22 08:35:13;;;;;;;3.83;1.45;;;18.20;99.90;;;;;;5031344;28;20447;-72
2021/05/22 08:37:40;;;;;;;6.28;1.23;;;18.20;99.90;;;;;;5032616;28;20022;-72
2021/05/22 08:40:07;;;;;;;3.72;1.38;;;18.10;99.90;;;;;;5029182;28;20037;-73
2021/05/22 08:42:34;;;;;;;9.43;2.17;;;18.20;99.90;;;;;;5032805;28;20017;-73
2021/05/22 08:45:20;;;;;;;7.95;1.20;;;18.30;99.90;;;;;;5031891;28;20447;-73
2021/05/22 08:47:48;;;;;;;7.18;1.80;;;18.40;99.90;;;;;;5029363;28;20033;-72
2021/05/22 08:50:15;;;;;;;7.80;1.60;;;18.40;99.90;;;;;;5032294;28;20037;-74
2021/05/22 08:52:41;;;;;;;8.32;1.98;;;18.40;99.90;;;;;;5032128;28;20033;-72
2021/05/22 08:55:08;;;;;;;3.75;2.33;;;18.50;99.90;;;;;;5016020;28;20072;-74
2021/05/22 08:57:35;;;;;;;10.57;1.60;;;18.30;99.90;;;;;;5016623;28;20018;-74
2021/05/22 09:00:01;;;;;;;2.38;1.40;;;18.40;99.90;;;;;;5031635;28;20040;-74
2021/05/22 09:02:27;;;;;;;7.10;1.73;;;18.60;99.90;;;;;;5014771;28;20030;-73
2021/05/22 09:05:21;;;;;;;6.15;1.92;;;18.60;99.90;;;;;;5032122;28;20028;-73
2021/05/22 09:07:51;;;;;;;7.28;1.67;;;18.60;99.90;;;;;;5028806;28;20026;-74
2021/05/22 09:10:17;;;;;;;6.93;2.05;;;18.60;99.90;;;;;;5036959;28;20434;-73
2021/05/22 09:12:45;;;;;;;8.43;1.90;;;18.60;99.90;;;;;;5038963;28;20028;-71
2021/05/22 09:15:20;;;;;;;8.70;2.20;;;18.60;99.90;;;;;;5023999;28;20029;-72
2021/05/22 09:18:03;;;;;;;5.50;1.65;;;18.70;99.90;;;;;;5031936;28;20116;-73
2021/05/22 09:20:37;;;;;;;3.70;1.48;;;18.80;99.90;;;;;;5031150;28;20076;-74
2021/05/22 09:23:10;;;;;;;3.38;1.55;;;18.90;99.90;;;;;;5026264;28;20021;-73
2021/05/22 09:25:38;;;;;;;9.40;1.80;;;18.90;99.90;;;;;;5025985;28;20041;-73
2021/05/22 09:28:09;;;;;;;5.30;1.90;;;18.90;99.90;;;;;;5031619;28;20479;-72
2021/05/22 09:30:37;;;;;;;10.13;3.08;;;18.80;99.90;;;;;;5029198;28;20064;-73
2021/05/22 09:33:04;;;;;;;13.70;2.38;;;18.90;99.90;;;;;;5030267;28;20096;-72
2021/05/22 09:35:30;;;;;;;7.10;2.15;;;18.80;99.90;;;;;;5035313;28;20028;-73
2021/05/22 09:38:02;;;;;;;5.15;1.92;;;18.80;99.90;;;;;;5040366;28;20022;-72
2021/05/22 09:40:31;;;;;;;7.30;1.90;;;18.90;99.90;;;;;;5033524;28;20025;-73
2021/05/22 09:43:00;;;;;;;7.03;1.77;;;18.90;99.90;;;;;;5026258;28;20021;-73
2021/05/22 09:45:34;;;;;;;5.43;2.28;;;19.00;99.90;;;;;;5042483;28;20646;-73
2021/05/22 09:48:21;;;;;;;5.97;1.90;;;19.20;99.90;;;;;;5039645;28;20024;-72
2021/05/22 09:50:51;;;;;;;9.05;2.10;;;19.30;99.90;;;;;;5025858;28;20017;-72
2021/05/22 09:53:20;;;;;;;8.95;3.58;;;19.20;99.90;;;;;;5040404;28;20021;-73
2021/05/22 09:56:22;;;;;;;4.03;2.60;;;19.30;99.90;;;;;;5013521;28;20068;-72
2021/05/22 09:58:49;;;;;;;7.33;2.60;;;19.30;99.90;;;;;;5036457;28;20033;-72
2021/05/22 10:01:16;;;;;;;10.07;2.47;;;19.30;99.90;;;;;;5038829;28;20049;-73
2021/05/22 10:03:42;;;;;;;6.47;2.08;;;19.30;99.90;;;;;;5042609;28;20099;-72
2021/05/22 10:06:08;;;;;;;12.05;1.83;;;19.20;99.90;;;;;;5037829;28;20484;-73
2021/05/22 10:08:34;;;;;;;9.02;1.60;;;19.20;99.90;;;;;;5040580;28;20056;-73
2021/05/22 10:11:00;;;;;;;11.55;2.67;;;19.20;99.90;;;;;;5037179;28;20021;-72
2021/05/22 10:13:27;;;;;;;7.43;1.42;;;19.20;99.90;;;;;;5042829;28;20013;-74
2021/05/22 10:16:03;;;;;;;11.43;2.00;;;19.10;99.90;;;;;;5040858;28;20383;-72
2021/05/22 10:18:30;;;;;;;7.22;1.20;;;19.10;99.90;;;;;;5041136;28;20029;-74
2021/05/22 10:21:00;;;;;;;2.45;1.27;;;19.00;99.90;;;;;;5021853;28;20025;-72
2021/05/22 10:23:26;;;;;;;6.63;1.38;;;19.00;99.90;;;;;;5039442;28;20573;-75
2021/05/22 10:25:53;;;;;;;9.55;1.60;;;19.00;99.90;;;;;;5024040;28;20036;-73
2021/05/22 10:28:19;;;;;;;11.27;1.63;;;18.90;99.90;;;;;;5038270;28;20025;-72
2021/05/22 10:30:46;;;;;;;7.85;1.23;;;18.80;99.90;;;;;;5036592;28;20075;-73
2021/05/22 10:33:14;;;;;;;7.68;1.67;;;18.80;99.90;;;;;;5036719;28;20018;-75
2021/05/22 10:35:43;;;;;;;2.97;1.15;;;18.90;99.90;;;;;;5030197;28;20767;-72
2021/05/22 10:38:10;;;;;;;4.35;1.65;;;19.00;99.90;;;;;;5029887;28;20025;-72
2021/05/22 10:40:48;;;;;;;3.50;2.15;;;19.00;99.90;;;;;;5029995;28;20819;-72
2021/05/22 10:43:15;;;;;;;2.65;1.63;;;19.20;99.90;;;;;;5021515;28;20029;-74
2021/05/22 10:45:43;;;;;;;5.90;1.08;;;19.20;99.90;;;;;;5029192;28;20029;-73
2021/05/22 10:48:28;;;;;;;4.30;1.20;;;19.30;99.90;;;;;;5029432;28;20382;-73
2021/05/22 10:50:55;;;;;;;3.60;1.38;;;19.40;99.90;;;;;;5027835;28;20029;-72
2021/05/22 10:53:30;;;;;;;6.80;1.45;;;19.40;99.90;;;;;;5029426;28;20168;-72
2021/05/22 10:56:05;;;;;;;12.13;2.25;;;19.40;99.90;;;;;;5029228;28;20022;-74
2021/05/22 10:58:32;;;;;;;3.13;1.42;;;19.40;99.90;;;;;;5020251;28;20163;-74
2021/05/22 11:01:36;;;;;;;5.35;1.40;;;19.40;99.90;;;;;;5029256;28;20037;-73
2021/05/22 11:04:24;;;;;;;4.03;1.70;;;19.50;99.90;;;;;;4961559;28;20555;-73
2021/05/22 11:06:55;;;;;;;17.90;2.08;;;19.60;99.90;;;;;;4956212;28;20135;-76
2021/05/22 11:12:02;;;;;;;7.07;1.98;;;19.70;99.90;;;;;;5029877;28;20061;-73
2021/05/22 11:14:42;;;;;;;3.25;1.75;;;19.80;99.90;;;;;;5030588;28;20025;-73
2021/05/22 11:17:26;;;;;;;4.95;1.98;;;19.70;99.90;;;;;;5018810;28;20051;-73
2021/05/22 11:19:57;;;;;;;5.90;1.95;;;19.70;99.90;;;;;;5029696;28;20046;-73
2021/05/22 11:22:24;;;;;;;2.60;1.70;;;19.60;99.90;;;;;;5016997;28;20030;-73
2021/05/22 11:25:14;;;;;;;12.77;2.75;;;19.50;99.90;;;;;;5028925;28;20040;-73
2021/05/22 11:27:51;;;;;;;10.50;2.10;;;19.60;99.90;;;;;;5015265;28;20038;-73
2021/05/22 11:30:21;;;;;;;4.97;1.48;;;19.60;99.90;;;;;;5027609;28;20032;-73
2021/05/22 11:33:03;;;;;;;5.35;1.85;;;19.70;99.90;;;;;;5030549;28;20479;-75
2021/05/22 11:37:58;;;;;;;5.07;1.58;;;19.70;99.90;;;;;;5033073;28;20029;-72
2021/05/22 11:40:39;;;;;;;5.78;1.35;;;19.80;99.90;;;;;;5043420;28;20112;-72
2021/05/22 11:43:18;;;;;;;4.22;1.42;;;19.80;99.90;;;;;;5022737;28;20029;-72
2021/05/22 11:45:45;;;;;;;3.63;1.75;;;19.90;99.90;;;;;;5040629;28;20026;-72
2021/05/22 11:48:43;;;;;;;3.78;1.75;;;20.00;99.90;;;;;;5021172;28;20501;-73
2021/05/22 11:51:25;;;;;;;6.47;2.00;;;20.00;99.90;;;;;;5055292;28;20021;-73
2021/05/22 11:54:03;;;;;;;3.75;1.67;;;20.00;99.90;;;;;;5042989;28;20026;-72
2021/05/22 11:56:35;;;;;;;14.63;1.38;;;20.10;99.90;;;;;;5036318;28;20056;-73
2021/05/22 11:59:02;;;;;;;;;;;20.00;99.90;;;;;;5054216;28;20459;-73
2021/05/22 12:01:38;;;;;;;3.47;1.48;;;20.00;99.90;;;;;;5038410;28;19927;-73
2021/05/22 12:04:05;;;;;;;5.38;1.20;;;20.00;99.90;;;;;;5039607;28;20029;-73
2021/05/22 12:06:40;;;;;;;4.07;1.40;;;20.00;99.90;;;;;;5042385;28;20022;-72
2021/05/22 12:09:22;;;;;;;5.45;2.15;;;20.00;99.90;;;;;;5040449;28;20025;-72
2021/05/22 12:12:09;;;;;;;1.73;1.33;;;20.00;99.90;;;;;;5036971;28;20017;-74
2021/05/22 12:14:43;;;;;;;3.67;1.10;;;20.00;99.90;;;;;;5042316;28;20027;-73
2021/05/22 12:17:15;;;;;;;3.42;0.98;;;19.90;99.90;;;;;;5046077;28;20021;-73
2021/05/22 12:19:45;;;;;;;4.03;1.25;;;19.80;99.90;;;;;;5045396;28;20064;-72
2021/05/22 12:22:15;;;;;;;4.35;1.05;;;19.70;99.90;;;;;;5011899;28;20079;-74
2021/05/22 12:24:42;;;;;;;4.82;1.40;;;19.70;99.90;;;;;;5049697;28;20040;-74
2021/05/22 12:27:15;;;;;;;5.43;1.40;;;19.70;99.90;;;;;;5041087;28;20037;-73
2021/05/22 12:29:47;;;;;;;3.63;1.58;;;19.70;99.90;;;;;;5037796;28;20095;-74
2021/05/22 12:32:13;;;;;;;;;;;19.80;99.90;;;;;;5030574;28;20017;-72
2021/05/22 12:34:39;;;;;;;6.07;1.67;;;19.80;99.90;;;;;;5032617;28;19920;-74
2021/05/22 12:37:08;;;;;;;5.88;1.90;;;19.80;99.90;;;;;;5032596;28;20459;-73
2021/05/22 12:39:42;;;;;;;5.32;1.50;;;19.80;99.90;;;;;;5032628;28;20022;-74
2021/05/22 12:42:25;;;;;;;15.45;3.28;;;19.80;99.90;;;;;;5032405;28;20029;-73
2021/05/22 12:44:56;;;;;;;6.95;1.67;;;19.90;99.90;;;;;;5021747;28;20526;-73
2021/05/22 12:47:34;;;;;;;5.15;1.92;;;19.90;99.90;;;;;;5032815;28;20112;-73
2021/05/22 12:50:06;;;;;;;7.05;1.63;;;20.00;99.90;;;;;;5024116;28;20432;-71
2021/05/22 12:52:50;;;;;;;17.50;9.57;;;20.00;99.90;;;;;;5021024;28;20080;-73
2021/05/22 12:55:23;;;;;;;12.40;7.78;;;20.00;99.90;;;;;;5031586;28;20422;-74
2021/05/22 12:57:49;;;;;;;2.75;1.70;;;20.10;99.90;;;;;;5031942;28;20050;-72
2021/05/22 13:00:16;;;;;;;4.13;1.52;;;20.10;99.90;;;;;;5032214;28;20056;-73